Latest Coastal Weather Observations for Mackay

IDQ60701

Issued at 3:55 pm EST Friday 28 November 2014 (issued every 10 minutes, with the page automatically refreshed every 10 minutes)

About coastal observations | Map of coastal stations | Coastal observations for QLD | Marine services | Other Formats
Station Details ID: 033119 Name: MACKAY M.O Lat: -21.12 Lon: 149.22 Height: 30.26 m
Data from the previous 72 hours. | See also: Recent months at Mackay
Date/Time
EST
Temp

°C
Wind Pressure Rain
since 9am
mm
Weather Cloud Vis
km
Sea
Height
m
Swell
Dir
 
Speed
knots
Gust
knots
hPa Trend Height
m
Period
s
Dir
28/03:30pm 28.3 ESE 10 15 1012.2 - 0.0 - Mostly clear 10 - - - -
28/03:00pm 28.7 ESE 10 16 1012.3 R 0.0 Haze Mostly clear 20 - - - -
28/02:30pm 29.0 SE 11 19 1012.6 - 0.0 - Mostly clear 10 - - - -
28/02:00pm 29.1 SE 11 17 1012.8 - 0.0 - Partly cloudy - - - - -
28/01:30pm 29.5 ESE 9 16 1013.1 - 0.0 - Partly cloudy - - - - -
28/01:00pm 29.3 SE 9 16 1013.3 - 0.0 - Partly cloudy 10 - - - -
28/12:30pm 28.9 SE 10 15 1013.5 - 0.0 - Partly cloudy 10 - - - -
28/12:00pm 29.5 SE 10 15 1013.7 R 0.0 Haze Partly cloudy 20 - - - -
28/11:30am 29.4 SE 10 15 1014.0 - 0.0 - Partly cloudy 10 - - - -
28/11:00am 29.2 SE 9 15 1014.3 - 0.0 - Partly cloudy 10 - - - -
28/10:30am 29.4 SE 9 16 1014.3 - 0.0 - Partly cloudy 10 - - - -
28/10:00am 28.6 SE 9 14 1014.4 - 0.0 - Partly cloudy 10 - - - -
28/09:30am 28.6 SE 9 13 1014.5 - 0.0 - Partly cloudy 10 - - - -
28/09:00am 28.6 SE 7 12 1014.5 F 0.0 Haze Partly cloudy 20 - - - -
28/08:30am 28.2 SE 8 11 1014.3 - 0.0 - Partly cloudy 10 - - - -
28/08:00am 27.3 SE 8 14 1014.2 - 0.0 - Partly cloudy 10 - - - -
28/07:30am 27.2 ESE 6 10 1014.0 - 0.0 - Partly cloudy 10 - - - -
28/07:00am 25.8 E 6 10 1014.0 - 0.0 - Partly cloudy 10 - - - -
28/06:30am 23.4 S 4 7 1013.9 - 0.0 - Partly cloudy 10 - - - -
28/06:00am 22.4 SSW 4 6 1013.6 R 0.0 Haze Partly cloudy 20 - - - -
28/05:30am 21.8 S 3 4 1013.1 - 0.0 - Partly cloudy - - - - -
28/05:00am 21.4 SSW 4 6 1012.7 - 0.0 - Partly cloudy - - - - -
28/04:30am 21.9 SSW 4 6 1012.5 - 0.0 - Partly cloudy - - - - -
28/04:00am 24.8 E 6 9 1012.4 - 0.0 - Partly cloudy - - - - -
28/03:30am 24.8 E 7 10 1012.3 - 0.0 - Partly cloudy - - - - -
28/03:00am 24.8 E 7 9 1012.1 - 0.0 - - - - - - -
28/02:30am 24.9 E 7 12 1012.2 - 0.0 - Partly cloudy - - - - -
28/02:00am 25.0 E 6 9 1012.2 - 0.0 - Partly cloudy - - - - -
28/01:30am 24.5 ENE 6 11 1012.4 - 0.0 - Partly cloudy - - - - -
28/01:00am 25.1 E 7 11 1012.6 - 0.0 - Partly cloudy - - - - -
28/12:30am 25.1 E 6 10 1012.8 - 0.0 - Partly cloudy - - - - -
28/12:00am 25.0 E 7 10 1012.9 - 0.0 - Mostly clear - - - - -
 
Date/Time
EST
Temp

°C
Wind Pressure Rain
since 9am
mm
Weather Cloud Vis
km
Sea
Height
m
Swell
Dir
 
Speed
knots
Gust
knots
hPa Trend Height
m
Period
s
Dir
27/11:30pm 25.2 E 8 12 1013.1 - 0.0 - Partly cloudy - - - - -
27/11:00pm 25.1 E 7 11 1013.4 - 0.0 - - - - - - -
27/10:30pm 25.1 E 8 11 1013.5 - 0.0 - Partly cloudy - - - - -
27/10:00pm 25.4 E 7 12 1013.7 - 0.0 - Partly cloudy - - - - -
27/09:30pm 25.4 E 7 11 1013.5 - 0.0 - Partly cloudy - - - - -
27/09:00pm 25.4 E 8 11 1013.3 F 0.0 - Mostly clear - - - - -
27/08:30pm 25.2 E 8 11 1013.2 - 0.0 - Partly cloudy - - - - -
27/08:00pm 25.3 E 9 12 1013.1 - 0.0 - - - - - - -
27/07:30pm 25.4 E 9 13 1012.8 - 0.0 - Partly cloudy - - - - -
27/07:00pm 25.5 E 7 11 1012.6 - 0.0 - - - - - - -
27/06:30pm 25.7 E 8 11 1012.5 - 0.0 - - - - - - -
27/06:00pm 26.1 ENE 7 12 1012.4 S 0.0 - - - - - - -
27/05:30pm 26.4 ENE 7 11 1012.0 - 0.0 - - - - - - -
27/05:00pm 26.5 E 7 12 1011.8 - 0.0 - Mostly clear 10 - - - -
27/04:30pm 26.6 E 7 12 1011.8 - 0.0 - Mostly clear 10 - - - -
27/04:00pm 26.7 E 7 10 1011.7 - 0.0 - Mostly clear 10 - - - -
27/03:30pm 26.9 E 6 10 1011.8 - 0.0 - Mostly clear 10 - - - -
27/03:00pm 27.9 E 7 11 1011.9 R 0.0 Haze Mostly cloudy 20 - - - -
27/02:30pm 28.2 E 7 12 1012.1 - 0.0 - Mostly clear 10 - - - -
27/02:00pm 27.1 ESE 7 10 1012.3 - 0.0 - Mostly clear 10 - - - -
27/01:30pm 27.1 E 8 11 1012.5 - 0.0 - Partly cloudy 10 - - - -
27/01:00pm 27.9 E 8 13 1012.8 - 0.0 - Partly cloudy 10 - - - -
27/12:30pm 27.4 E 8 13 1013.1 - 0.0 - Partly cloudy 10 - - - -
27/12:00pm 28.3 E 7 11 1013.3 R 0.0 Haze Mostly cloudy 20 - - - -
27/11:30am 28.3 E 7 10 1013.6 - 0.0 - Partly cloudy 10 - - - -
27/11:00am 27.8 E 7 12 1013.7 - 0.0 - Partly cloudy 10 - - - -
27/10:30am 28.0 E 8 11 1014.0 - 0.0 - - - - - - -
27/10:00am 29.1 E 7 11 1014.2 - 0.0 - Partly cloudy 10 - - - -
27/09:30am 28.5 E 8 11 1014.3 - 0.0 - Partly cloudy 10 - - - -
27/09:00am 28.5 E 8 11 1014.4 F 0.2 Haze Mostly cloudy 20 - - - -
27/08:30am 27.1 E 7 9 1014.4 - 0.2 - Mostly clear 10 - - - -
27/08:00am 26.6 ESE 6 9 1014.5 - 0.2 - Mostly clear 10 - - - -
27/07:30am 28.0 E 7 11 1014.5 - 0.2 - Partly cloudy 10 - - - -
27/07:00am 25.2 S 3 6 1014.3 - 0.2 - Partly cloudy 10 - - - -
27/06:30am 25.6 ESE 6 9 1014.5 - 0.2 - Partly cloudy 10 - - - -
27/06:00am 25.5 ESE 5 9 1014.0 S 0.2 Haze Mostly cloudy 20 - - - -
27/05:30am 24.9 E 6 9 1013.6 - 0.2 - - - - - - -
27/05:00am 24.9 E 6 10 1013.4 - 0.2 - Partly cloudy - - - - -
27/04:30am 24.8 E 6 10 1013.2 - 0.2 - Partly cloudy - - - - -
27/04:00am 24.6 E 7 10 1013.0 - 0.2 - Partly cloudy - - - - -
27/03:30am 24.7 E 8 12 1012.8 - 0.2 - - - - - - -
27/03:00am 24.9 E 9 14 1012.8 - 0.2 - Mostly clear - - - - -
27/02:30am 25.0 E 9 14 1012.9 - 0.2 - Partly cloudy - - - - -
27/02:00am 25.0 E 9 13 1012.9 - 0.2 - - - - - - -
27/01:30am 24.9 E 9 13 1013.0 - 0.2 - - - - - - -
27/01:00am 24.9 E 9 13 1013.2 - 0.2 - Partly cloudy - - - - -
27/12:30am 25.0 E 9 16 1013.5 - 0.2 - Partly cloudy - - - - -
27/12:00am 25.2 E 8 12 1013.7 - 0.2 - - - - - - -
 
Date/Time
EST
Temp

°C
Wind Pressure Rain
since 9am
mm
Weather Cloud Vis
km
Sea
Height
m
Swell
Dir
 
Speed
knots
Gust
knots
hPa Trend Height
m
Period
s
Dir
26/11:30pm 25.1 E 10 15 1013.8 - 0.2 - - - - - - -
26/11:00pm 25.2 E 10 14 1014.1 - 0.2 - Partly cloudy - - - - -
26/10:30pm 25.3 ENE 9 15 1014.2 - 0.2 - Partly cloudy - - - - -
26/10:00pm 25.5 E 9 16 1014.2 - 0.2 - Partly cloudy - - - - -
26/09:30pm 25.5 E 9 14 1014.0 - 0.2 - Partly cloudy - - - - -
26/09:00pm 25.5 E 7 11 1013.8 F 0.2 - Mostly clear - - - - -
26/08:30pm 25.4 E 8 13 1013.6 - 0.2 - Partly cloudy - - - - -
26/08:00pm 25.5 E 7 11 1013.7 - 0.2 - - - - - - -
26/07:30pm 25.5 E 7 11 1013.5 - 0.2 - Partly cloudy - - - - -
26/07:00pm 25.6 ENE 8 12 1013.2 - 0.2 - Partly cloudy - - - - -
26/06:30pm 25.8 ENE 8 11 1013.1 - 0.2 - - - - - - -
26/06:00pm 26.1 E 9 13 1013.0 R 0.2 - Mostly clear - - - - -
26/05:30pm 27.0 ENE 7 11 1012.8 - 0.2 - Partly cloudy - - - - -
26/05:00pm 27.1 ENE 7 13 1012.5 - 0.2 - Mostly clear 10 - - - -
26/04:30pm 27.9 ENE 9 14 1012.2 - 0.2 - Mostly clear 10 - - - -
26/04:00pm 28.6 NE 8 13 1012.0 - 0.2 - Mostly clear 10 - - - -
26/03:30pm 28.5 ENE 9 14 1012.3 - 0.2 - Mostly clear 10 - - - -
26/03:00pm 28.9 ENE 10 16 1012.4 R 0.2 Fine Partly cloudy 25 - - - -
26/02:30pm 29.3 E 10 15 1012.6 - 0.2 - Mostly clear 10 - - - -
26/02:00pm 29.6 ENE 10 15 1012.7 - 0.2 - Mostly clear 10 - - - -
26/01:30pm 29.2 E 11 15 1012.8 - 0.2 - Mostly clear 10 - - - -
26/01:00pm 29.5 E 11 16 1013.1 - 0.2 - Partly cloudy - - - - -
26/12:30pm 29.7 E 11 16 1013.4 - 0.2 - Partly cloudy 10 - - - -
26/12:00pm 28.3 E 11 16 1013.6 R 0.2 Fine Mostly cloudy 20 - - - -
26/11:30am 29.0 E 12 16 1013.9 - 0.2 - Partly cloudy 10 - - - -
26/11:00am 28.9 ENE 10 15 1014.1 - 0.2 - Partly cloudy 10 - - - -
26/10:30am 29.1 E 11 15 1014.3 - 0.2 - Partly cloudy 10 - - - -
26/10:00am 28.2 E 12 15 1014.3 - 0.2 - Partly cloudy 10 - - - -
26/09:30am 28.2 E 12 18 1014.3 - 0.0 - Mostly clear 10 - - - -
26/09:00am 27.6 E 13 18 1014.2 R 2.4 Fine Partly cloudy 20 - - - -
26/08:30am 26.6 E 10 14 1014.4 - 2.4 - Mostly cloudy 10 - - - -
26/08:00am 24.8 NE 10 18 1014.3 - 1.4 - Mostly cloudy 10 - - - -
26/07:30am 28.7 ENE 9 14 1013.9 - 0.0 - Partly cloudy 10 - - - -
26/07:00am 27.8 ENE 8 14 1013.6 - 0.0 - Partly cloudy 10 - - - -
26/06:30am 26.6 ENE 7 11 1013.2 - 0.0 - Partly cloudy 10 - - - -
26/06:00am 26.1 ENE 7 13 1012.8 F 0.0 Fine Mostly clear 20 - - - -
26/05:30am 25.5 NE 6 10 1012.4 - 0.0 - Partly cloudy - - - - -
26/05:00am 25.1 NNE 5 8 1012.2 - 0.0 - Partly cloudy - - - - -
26/04:30am 25.4 ENE 5 9 1012.0 - 0.0 - Partly cloudy - - - - -
26/04:00am 25.5 ENE 5 8 1011.9 - 0.0 - Partly cloudy - - - - -
26/03:30am 25.7 ENE 6 10 1011.8 - 0.0 - Partly cloudy - - - - -
26/03:00am 25.6 ENE 6 8 1011.8 - 0.0 - Cloudy - - - - -
26/02:30am 25.4 ENE 6 11 1011.8 - 0.0 - Partly cloudy - - - - -
26/02:00am 25.6 NNE 5 8 1011.7 - 0.0 - Partly cloudy - - - - -
26/01:30am 25.7 NE 7 10 1011.8 - 0.0 - Partly cloudy - - - - -
26/01:00am 25.4 NE 6 10 1012.1 - 0.0 - Partly cloudy - - - - -
26/12:30am 25.9 NE 6 9 1012.4 - 0.0 - Partly cloudy - - - - -
26/12:00am 25.7 NE 5 8 1013.0 - 0.0 - Partly cloudy - - - - -
 
Date/Time
EST
Temp

°C
Wind Pressure Rain
since 9am
mm
Weather Cloud Vis
km
Sea
Height
m
Swell
Dir
 
Speed
knots
Gust
knots
hPa Trend Height
m
Period
s
Dir
25/11:30pm 25.9 ENE 6 9 1013.3 - 0.0 - Partly cloudy - - - - -
25/11:00pm 26.0 E 7 10 1013.6 - 0.0 - Partly cloudy - - - - -
25/10:30pm 25.9 ENE 7 13 1013.8 - 0.0 - Partly cloudy - - - - -
25/10:00pm 25.8 ENE 7 11 1013.9 - 0.0 - - - - - - -
25/09:30pm 26.1 ENE 7 11 1013.8 - 0.0 - Partly cloudy - - - - -
25/09:24pm 26.1 ENE 7 11 1013.7 - 0.0 - Partly cloudy - - - - -
25/09:00pm 26.2 E 7 11 1013.6 R 0.0 - Cloudy - - - - -
25/08:34pm 26.1 E 7 11 1013.3 - 0.0 - Partly cloudy - - - - -
25/08:30pm 26.1 E 7 11 1013.3 - 0.0 - Partly cloudy - - - - -
25/08:28pm 26.1 E 8 11 1013.2 - 0.0 - Partly cloudy - - - - -
25/08:11pm 26.0 E 8 12 1012.9 - 0.0 - Partly cloudy - - - - -
25/08:08pm 26.0 E 8 12 1012.9 - 0.0 - Partly cloudy - - - - -
25/08:00pm 26.0 E 8 12 1012.9 - 0.0 - Partly cloudy - - - - -
25/07:41pm 26.0 E 6 12 1012.8 - 0.0 - Partly cloudy - - - - -
25/07:30pm 26.0 ESE 6 10 1012.7 - 0.0 - Partly cloudy - - - - -
25/07:26pm 26.0 ESE 6 10 1012.7 - 0.0 - Partly cloudy - - - - -
25/07:14pm 26.2 ESE 7 12 1012.5 - 0.0 - Partly cloudy - - - - -
25/07:00pm 26.1 E 7 11 1012.4 - 0.0 - Partly cloudy - - - - -
25/06:30pm 26.2 ESE 7 11 1012.1 - 0.0 - - - - - - -
25/06:00pm 26.5 ESE 7 12 1011.9 F 0.0 - - - - - - -
25/05:30pm 27.3 ESE 7 13 1011.6 - 0.0 - - - - - - -
25/05:00pm 27.5 ESE 8 13 1011.5 - 0.0 - Mostly clear 10 - - - -
25/04:30pm 28.0 ESE 7 11 1011.4 - 0.0 - Mostly clear 10 - - - -
25/04:00pm 28.3 ESE 8 12 1011.6 - 0.0 - Mostly clear 10 - - - -

Other Formats:

Comma delimited format used in spreadsheet applications
http://www.bom.gov.au/fwo/IDQ60701/IDQ60701.94367.axf

JavaScript Object Notation format (JSON) in row-major order
http://www.bom.gov.au/fwo/IDQ60701/IDQ60701.94367.json